createdAt,value
2022-11-18T00:00:05.408Z,1.50
2022-11-18T00:02:50.931Z,1.05
2022-11-18T00:05:36.530Z,1.63
2022-11-18T00:08:23.241Z,1.55
2022-11-18T00:11:34.336Z,2.13
2022-11-18T00:14:23.717Z,3.10
2022-11-18T00:17:09.254Z,0.90
2022-11-18T00:19:54.604Z,1.33
2022-11-18T00:22:40.414Z,1.40
2022-11-18T00:25:26.309Z,0.55
2022-11-18T00:28:11.634Z,0.28
2022-11-18T00:31:01.986Z,1.30
2022-11-18T00:33:47.372Z,0.68
2022-11-18T00:36:33.261Z,0.50
2022-11-18T00:39:20.778Z,1.25
2022-11-18T00:42:24.978Z,1.73
2022-11-18T00:45:10.690Z,2.47
2022-11-18T00:47:56.470Z,1.73
2022-11-18T00:50:41.722Z,1.85
2022-11-18T00:53:27.646Z,1.52
2022-11-18T00:56:13.118Z,1.58
2022-11-18T00:58:58.604Z,1.98
2022-11-18T01:01:44.180Z,3.17
2022-11-18T01:04:30.145Z,6.88
2022-11-18T01:07:15.304Z,6.50
2022-11-18T01:10:01.164Z,4.07
2022-11-18T01:13:04.633Z,4.80
2022-11-18T01:15:54.002Z,3.75
2022-11-18T01:18:39.255Z,2.33
2022-11-18T01:21:25.189Z,3.00
2022-11-18T01:24:10.542Z,3.28
2022-11-18T01:26:56.280Z,3.47
2022-11-18T01:29:41.970Z,3.75
2022-11-18T01:32:28.692Z,4.95
2022-11-18T01:35:14.872Z,5.40
2022-11-18T01:38:00.085Z,1.92
2022-11-18T01:40:45.682Z,2.08
2022-11-18T01:44:06.561Z,1.02
2022-11-18T01:46:51.928Z,1.23
2022-11-18T01:49:37.299Z,0.75
2022-11-18T01:52:23.536Z,1.38
2022-11-18T01:55:17.793Z,1.73
2022-11-18T01:58:15.932Z,1.00
2022-11-18T02:01:02.611Z,1.33
2022-11-18T02:03:49.711Z,1.98
2022-11-18T02:06:35.332Z,2.17
2022-11-18T02:09:21.635Z,2.00
2022-11-18T02:12:08.117Z,2.25
2022-11-18T02:14:53.701Z,1.63
2022-11-18T02:17:55.945Z,1.55
2022-11-18T02:20:44.241Z,2.55
2022-11-18T02:23:44.268Z,2.72
2022-11-18T02:26:45.350Z,2.25
2022-11-18T02:29:37.432Z,3.22
2022-11-18T02:32:29.661Z,2.88
2022-11-18T02:35:31.882Z,2.92
2022-11-18T02:38:49.612Z,4.00
2022-11-18T02:41:39.643Z,2.75
2022-11-18T02:44:27.152Z,3.00
2022-11-18T02:47:15.379Z,3.10
2022-11-18T02:50:06.156Z,3.08
2022-11-18T02:52:59.653Z,3.13
2022-11-18T02:55:47.171Z,2.92
2022-11-18T02:58:32.824Z,4.75
2022-11-18T03:01:25.323Z,4.35
2022-11-18T03:04:11.594Z,5.55
2022-11-18T03:07:21.185Z,3.45
2022-11-18T03:10:06.988Z,2.25
2022-11-18T03:13:26.369Z,2.88
2022-11-18T03:16:17.890Z,2.30
2022-11-18T03:19:20.322Z,2.30
2022-11-18T03:22:17.840Z,2.75
2022-11-18T03:25:06.786Z,2.45
2022-11-18T03:28:15.877Z,4.13
2022-11-18T03:31:06.416Z,2.17
2022-11-18T03:33:58.172Z,2.05
2022-11-18T03:36:51.988Z,1.95
2022-11-18T03:39:46.555Z,2.65
2022-11-18T03:42:45.223Z,1.80
2022-11-18T03:45:59.948Z,1.27
2022-11-18T03:48:49.764Z,0.80
2022-11-18T03:51:44.135Z,1.60
2022-11-18T03:54:33.433Z,2.03
2022-11-18T03:57:27.581Z,3.75
2022-11-18T04:00:15.541Z,2.77
2022-11-18T04:03:01.402Z,3.05
2022-11-18T04:05:51.816Z,2.90
2022-11-18T04:08:41.444Z,3.42
2022-11-18T04:11:54.086Z,2.53
2022-11-18T04:14:42.631Z,2.30
2022-11-18T04:17:29.400Z,2.85
2022-11-18T04:20:21.928Z,2.28
2022-11-18T04:23:08.280Z,2.53
2022-11-18T04:25:53.538Z,2.80
2022-11-18T04:28:39.209Z,3.72
2022-11-18T04:31:25.017Z,2.72
2022-11-18T04:34:10.642Z,1.88
2022-11-18T04:36:56.312Z,2.10
2022-11-18T04:39:41.607Z,1.35
2022-11-18T04:42:27.569Z,1.58
2022-11-18T04:45:12.791Z,0.80
2022-11-18T04:48:03.276Z,0.63
2022-11-18T04:50:49.241Z,0.80
2022-11-18T04:53:34.747Z,0.77
2022-11-18T04:56:20.412Z,0.70
2022-11-18T04:59:06.830Z,1.25
2022-11-18T05:01:53.625Z,0.90
2022-11-18T05:04:39.115Z,1.10
2022-11-18T05:07:24.785Z,2.08
2022-11-18T05:10:10.158Z,0.75
2022-11-18T05:12:55.724Z,2.03
2022-11-18T05:15:41.342Z,2.28
2022-11-18T05:18:26.692Z,5.07
2022-11-18T05:21:12.492Z,0.95
2022-11-18T05:23:59.797Z,1.27
2022-11-18T05:26:46.142Z,1.75
2022-11-18T05:29:31.797Z,2.35
2022-11-18T05:32:17.211Z,1.30
2022-11-18T05:35:02.893Z,1.92
2022-11-18T05:37:48.275Z,1.45
2022-11-18T05:40:33.907Z,1.38
2022-11-18T05:43:19.324Z,3.38
2022-11-18T05:46:05.031Z,1.88
2022-11-18T05:48:50.849Z,3.95
2022-11-18T05:51:36.281Z,1.92
2022-11-18T05:54:22.369Z,4.00
2022-11-18T05:57:07.762Z,3.42
2022-11-18T05:59:53.641Z,2.65
2022-11-18T06:02:40.728Z,1.42
2022-11-18T06:05:26.819Z,1.13
2022-11-18T06:08:15.886Z,1.30
2022-11-18T06:11:01.842Z,1.17
2022-11-18T06:14:05.232Z,2.25
2022-11-18T06:16:55.748Z,1.23
2022-11-18T06:19:41.466Z,1.00
2022-11-18T06:22:26.987Z,1.35
2022-11-18T06:25:12.533Z,0.85
2022-11-18T06:28:01.477Z,1.85
2022-11-18T06:30:46.765Z,1.20
2022-11-18T06:33:32.274Z,0.70
2022-11-18T06:36:17.577Z,0.70
2022-11-18T06:39:07.529Z,1.55
2022-11-18T06:41:54.013Z,0.40
2022-11-18T06:44:39.389Z,0.40
2022-11-18T06:47:24.836Z,0.30
2022-11-18T06:50:10.542Z,0.90
2022-11-18T06:52:56.786Z,0.68
2022-11-18T06:55:42.781Z,0.90
2022-11-18T06:58:28.415Z,2.58
2022-11-18T07:01:15.625Z,0.65
2022-11-18T07:04:01.372Z,0.30
2022-11-18T07:06:47.033Z,1.90
2022-11-18T07:09:32.471Z,1.10
2022-11-18T07:12:18.120Z,2.17
2022-11-18T07:15:03.843Z,1.02
2022-11-18T07:17:49.394Z,0.68
2022-11-18T07:20:35.291Z,0.50
2022-11-18T07:23:20.370Z,2.25
2022-11-18T07:26:07.454Z,0.32
2022-11-18T07:28:54.277Z,1.83
2022-11-18T07:31:40.074Z,0.45
2022-11-18T07:34:25.577Z,0.50
2022-11-18T07:37:11.163Z,0.40
2022-11-18T07:39:56.590Z,1.00
2022-11-18T07:42:44.704Z,0.65
2022-11-18T07:45:30.151Z,0.65
2022-11-18T07:48:15.748Z,0.50
2022-11-18T07:51:01.369Z,0.40
2022-11-18T07:53:47.522Z,0.25
2022-11-18T07:56:32.836Z,0.30
2022-11-18T07:59:18.454Z,0.90
2022-11-18T08:02:04.040Z,0.70
2022-11-18T08:04:49.600Z,2.17
2022-11-18T08:07:35.002Z,1.30
2022-11-18T08:10:20.585Z,4.65
2022-11-18T08:13:06.104Z,7.40
2022-11-18T08:15:51.530Z,3.97
2022-11-18T08:18:36.791Z,8.65
2022-11-18T08:21:23.239Z,6.93
2022-11-18T08:24:10.293Z,2.55
2022-11-18T08:26:55.828Z,1.83
2022-11-18T08:29:41.318Z,2.13
2022-11-18T08:32:27.053Z,2.05
2022-11-18T08:35:12.284Z,5.65
2022-11-18T08:37:58.364Z,4.82
2022-11-18T08:40:47.591Z,7.07
2022-11-18T08:43:35.023Z,5.38
2022-11-18T08:46:20.267Z,1.90
2022-11-18T08:49:05.864Z,2.88
2022-11-18T08:51:51.179Z,2.08
2022-11-18T08:54:37.054Z,2.95
2022-11-18T08:57:22.980Z,2.25
2022-11-18T09:00:09.181Z,1.95
2022-11-18T09:02:54.723Z,2.45
2022-11-18T09:05:40.231Z,2.42
2022-11-18T09:08:26.772Z,3.05
2022-11-18T09:11:21.696Z,3.63
2022-11-18T09:15:06.458Z,1.23
2022-11-18T09:17:14.349Z,1.13
2022-11-18T09:19:59.807Z,2.42
2022-11-18T09:22:45.143Z,2.78
2022-11-18T09:25:30.740Z,1.10
2022-11-18T09:28:16.321Z,1.67
2022-11-18T09:31:05.665Z,3.03
2022-11-18T09:33:51.354Z,5.32
2022-11-18T09:36:36.894Z,2.88
2022-11-18T09:39:24.926Z,1.88
2022-11-18T09:42:18.999Z,1.50
2022-11-18T09:45:37.225Z,3.17
2022-11-18T09:48:43.132Z,1.17
2022-11-18T09:51:33.232Z,2.53
2022-11-18T09:54:29.538Z,1.42
2022-11-18T09:57:19.569Z,0.75
2022-11-18T10:00:17.880Z,0.50
2022-11-18T10:03:05.049Z,1.10
2022-11-18T10:05:57.119Z,0.73
2022-11-18T10:09:13.408Z,3.85
2022-11-18T10:15:13.190Z,0.68
2022-11-18T10:18:59.047Z,1.13
2022-11-18T10:21:37.716Z,0.77
2022-11-18T10:24:26.683Z,1.20
2022-11-18T10:27:15.157Z,0.57
2022-11-18T10:30:01.645Z,0.40
2022-11-18T10:32:56.335Z,0.93
2022-11-18T10:35:41.773Z,0.63
2022-11-18T10:38:27.189Z,1.80
2022-11-18T10:41:18.276Z,0.93
2022-11-18T10:44:07.978Z,1.92
2022-11-18T10:46:56.593Z,3.53
2022-11-18T10:49:42.447Z,2.47
2022-11-18T10:52:29.967Z,4.10
2022-11-18T10:55:20.400Z,1.92
2022-11-18T10:58:16.466Z,1.30
2022-11-18T11:01:21.812Z,1.48
2022-11-18T11:04:34.149Z,0.80
2022-11-18T11:07:38.470Z,2.65
2022-11-18T11:10:24.285Z,0.57
2022-11-18T11:13:17.214Z,2.83
2022-11-18T11:16:05.071Z,0.98
2022-11-18T11:18:56.493Z,1.58
2022-11-18T11:21:42.250Z,0.73
2022-11-18T11:24:28.512Z,1.17
2022-11-18T11:30:53.998Z,1.85
2022-11-18T11:34:11.752Z,1.15
2022-11-18T11:37:43.025Z,0.57
2022-11-18T11:40:50.563Z,1.77
2022-11-18T11:44:02.734Z,1.63
2022-11-18T11:47:13.947Z,1.27
2022-11-18T11:50:19.073Z,2.45
2022-11-18T11:53:38.046Z,1.40
2022-11-18T11:56:51.468Z,1.67
2022-11-18T11:59:36.804Z,1.00
2022-11-18T12:02:38.903Z,1.35
2022-11-18T12:05:31.144Z,0.80
2022-11-18T12:08:30.628Z,1.75
2022-11-18T12:11:26.817Z,1.05
2022-11-18T12:14:27.734Z,1.75
2022-11-18T12:17:16.441Z,0.55
2022-11-18T12:20:36.036Z,1.05
2022-11-18T12:23:30.100Z,0.40
2022-11-18T12:26:34.813Z,0.38
2022-11-18T12:29:20.557Z,2.58
2022-11-18T12:32:24.966Z,4.63
2022-11-18T12:35:13.216Z,1.95
2022-11-18T12:38:01.790Z,1.40
2022-11-18T12:40:52.572Z,1.85
2022-11-18T12:43:46.928Z,1.90
2022-11-18T12:46:35.185Z,2.08
2022-11-18T12:49:23.480Z,1.30
2022-11-18T12:52:29.101Z,0.70
2022-11-18T12:55:32.517Z,0.90
2022-11-18T12:58:26.209Z,1.17
2022-11-18T13:01:14.188Z,0.85
2022-11-18T13:04:08.538Z,1.70
2022-11-18T13:06:56.117Z,1.15
2022-11-18T13:09:42.008Z,2.13
2022-11-18T13:12:29.726Z,4.70
2022-11-18T13:15:34.098Z,4.70
2022-11-18T13:18:20.794Z,4.60
2022-11-18T13:21:24.386Z,4.13
2022-11-18T13:24:17.772Z,1.83
2022-11-18T13:27:03.400Z,0.70
2022-11-18T13:29:55.322Z,1.02
2022-11-18T13:32:48.602Z,1.30
2022-11-18T13:35:34.090Z,3.88
2022-11-18T13:38:28.532Z,0.65
2022-11-18T13:41:22.609Z,1.45
2022-11-18T13:44:27.344Z,1.98
2022-11-18T13:47:37.051Z,2.43
2022-11-18T13:50:34.298Z,1.63
2022-11-18T13:53:33.187Z,0.65
2022-11-18T13:56:28.927Z,2.17
2022-11-18T13:59:23.546Z,4.60
2022-11-18T14:02:13.188Z,2.67
2022-11-18T14:05:00.019Z,1.02
2022-11-18T14:08:06.284Z,2.75
2022-11-18T14:10:51.691Z,1.48
2022-11-18T14:13:48.563Z,2.28
2022-11-18T14:16:41.818Z,3.60
2022-11-18T14:19:32.802Z,3.33
2022-11-18T14:22:21.464Z,3.25
2022-11-18T14:25:23.560Z,3.55
2022-11-18T14:28:17.104Z,3.60
2022-11-18T14:31:16.128Z,4.30
2022-11-18T14:34:05.269Z,1.67
2022-11-18T14:36:52.209Z,3.67
2022-11-18T14:39:38.270Z,2.08
2022-11-18T14:42:24.824Z,2.33
2022-11-18T14:45:11.831Z,4.63
2022-11-18T14:47:57.218Z,4.93
2022-11-18T14:50:42.451Z,12.23
2022-11-18T14:53:28.053Z,6.53
2022-11-18T14:56:26.441Z,12.32
2022-11-18T14:59:16.842Z,5.82
2022-11-18T15:02:02.865Z,4.63
2022-11-18T15:04:50.712Z,9.73
2022-11-18T15:07:36.822Z,4.75
2022-11-18T15:10:22.371Z,3.20
2022-11-18T15:13:07.784Z,2.47
2022-11-18T15:15:53.335Z,1.65
2022-11-18T15:18:39.034Z,1.50
2022-11-18T15:21:25.435Z,4.50
2022-11-18T15:24:11.241Z,2.65
2022-11-18T15:26:56.685Z,2.33
2022-11-18T15:29:42.315Z,1.20
2022-11-18T15:32:27.935Z,2.20
2022-11-18T15:35:14.282Z,2.42
2022-11-18T15:37:59.863Z,7.72
2022-11-18T15:40:45.699Z,1.92
2022-11-18T15:43:31.051Z,3.30
2022-11-18T15:46:19.436Z,2.55
2022-11-18T15:49:04.907Z,4.22
2022-11-18T15:51:50.218Z,2.53
2022-11-18T15:54:35.974Z,5.78
2022-11-18T15:57:21.633Z,3.38
2022-11-18T16:00:09.181Z,2.60
2022-11-18T16:02:54.857Z,4.28
2022-11-18T16:05:40.406Z,2.65
2022-11-18T16:08:26.335Z,3.97
2022-11-18T16:11:33.194Z,4.22
2022-11-18T16:14:20.674Z,2.95
2022-11-18T16:17:06.212Z,2.70
2022-11-18T16:19:51.880Z,3.38
2022-11-18T16:22:37.180Z,2.00
2022-11-18T16:25:24.220Z,3.95
2022-11-18T16:28:09.768Z,3.45
2022-11-18T16:31:13.977Z,5.32
2022-11-18T16:33:59.326Z,1.77
2022-11-18T16:36:50.278Z,3.25
2022-11-18T16:39:36.211Z,4.15
2022-11-18T16:42:21.556Z,4.30
2022-11-18T16:45:07.254Z,5.60
2022-11-18T16:47:52.635Z,4.50
2022-11-18T16:50:38.173Z,9.43
2022-11-18T16:53:24.084Z,5.45
2022-11-18T16:56:09.424Z,6.22
2022-11-18T16:59:07.194Z,5.10
2022-11-18T17:01:54.631Z,4.00
2022-11-18T17:04:39.998Z,5.90
2022-11-18T17:07:25.736Z,3.13
2022-11-18T17:10:19.747Z,4.53
2022-11-18T17:13:05.527Z,4.03
2022-11-18T17:15:50.868Z,3.13
2022-11-18T17:18:37.328Z,3.50
2022-11-18T17:21:23.481Z,4.32
2022-11-18T17:24:10.607Z,3.45
2022-11-18T17:26:56.515Z,3.67
2022-11-18T17:29:41.956Z,6.30
2022-11-18T17:32:28.078Z,3.47
2022-11-18T17:35:13.632Z,4.60
2022-11-18T17:37:59.030Z,6.30
2022-11-18T17:40:44.608Z,4.55
2022-11-18T17:43:30.968Z,4.43
2022-11-18T17:46:16.190Z,9.20
2022-11-18T17:49:04.528Z,5.47
2022-11-18T17:51:51.435Z,3.15
2022-11-18T17:54:37.152Z,3.35
2022-11-18T17:57:23.004Z,5.25
2022-11-18T18:00:09.320Z,3.38
2022-11-18T18:02:55.231Z,2.15
2022-11-18T18:05:40.805Z,3.90
2022-11-18T18:08:26.276Z,2.53
2022-11-18T18:11:15.332Z,3.08
2022-11-18T18:14:12.857Z,2.42
2022-11-18T18:17:00.380Z,3.85
2022-11-18T18:19:45.783Z,3.45
2022-11-18T18:22:31.423Z,2.60
2022-11-18T18:25:18.916Z,3.85
2022-11-18T18:28:06.230Z,3.35
2022-11-18T18:31:01.752Z,3.15
2022-11-18T18:33:47.541Z,5.20
2022-11-18T18:36:33.418Z,2.92
2022-11-18T18:39:18.826Z,3.10
2022-11-18T18:42:04.505Z,4.13
2022-11-18T18:45:08.827Z,5.05
2022-11-18T18:47:54.261Z,2.92
2022-11-18T18:50:39.603Z,5.45
2022-11-18T18:53:24.950Z,1.92
2022-11-18T18:56:10.273Z,2.25
2022-11-18T18:58:59.639Z,2.45
2022-11-18T19:01:45.061Z,5.75
2022-11-18T19:04:30.750Z,3.20
2022-11-18T19:07:16.901Z,2.85
2022-11-18T19:10:02.211Z,2.15
2022-11-18T19:12:52.500Z,2.72
2022-11-18T19:15:38.539Z,3.70
2022-11-18T19:18:24.336Z,3.15
2022-11-18T19:21:10.918Z,4.28
2022-11-18T19:23:56.767Z,4.85
2022-11-18T19:26:42.100Z,5.00
2022-11-18T19:29:27.437Z,3.30
2022-11-18T19:32:13.268Z,2.75
2022-11-18T19:34:58.809Z,3.72
2022-11-18T19:37:44.433Z,3.72
2022-11-18T19:40:29.824Z,2.25
2022-11-18T19:43:15.259Z,3.40
2022-11-18T19:46:01.532Z,3.10
2022-11-18T19:48:51.331Z,3.13
2022-11-18T19:51:37.524Z,2.47
2022-11-18T19:54:23.356Z,1.85
2022-11-18T19:57:08.752Z,3.45
2022-11-18T19:59:54.723Z,2.85
2022-11-18T20:02:40.215Z,4.38
2022-11-18T20:05:47.320Z,2.90
2022-11-18T20:08:34.737Z,5.18
2022-11-18T20:11:21.868Z,4.50
2022-11-18T20:14:08.350Z,8.25
2022-11-18T20:16:53.973Z,10.43
2022-11-18T20:19:39.349Z,7.03
2022-11-18T20:22:25.214Z,7.78
2022-11-18T20:25:10.795Z,10.90
2022-11-18T20:27:56.407Z,9.63
2022-11-18T20:30:41.610Z,8.68
2022-11-18T20:33:27.294Z,11.10
2022-11-18T20:36:14.970Z,15.68
2022-11-18T20:39:03.213Z,17.83
2022-11-18T20:42:07.242Z,17.30
2022-11-18T20:44:53.250Z,8.10
2022-11-18T20:47:38.614Z,4.85
2022-11-18T20:50:23.976Z,5.82
2022-11-18T20:53:09.457Z,5.15
2022-11-18T20:55:55.065Z,3.80
2022-11-18T20:58:41.177Z,3.85
2022-11-18T21:01:29.571Z,4.50
2022-11-18T21:04:14.949Z,6.70
2022-11-18T21:07:01.725Z,6.93
2022-11-18T21:09:47.851Z,11.30
2022-11-18T21:12:33.150Z,15.82
2022-11-18T21:15:19.039Z,7.30
2022-11-18T21:18:04.760Z,7.55
2022-11-18T21:21:08.754Z,8.75
2022-11-18T21:23:55.439Z,7.68
2022-11-18T21:26:41.670Z,7.65
2022-11-18T21:29:28.909Z,9.68
2022-11-18T21:32:14.338Z,8.45
2022-11-18T21:34:59.608Z,5.75
2022-11-18T21:37:45.369Z,5.53
2022-11-18T21:40:31.214Z,11.35
2022-11-18T21:43:17.010Z,21.52
2022-11-18T21:46:10.914Z,8.43
2022-11-18T21:49:00.131Z,14.65
2022-11-18T21:51:46.357Z,5.40
2022-11-18T21:54:32.392Z,6.47
2022-11-18T21:57:17.970Z,9.05
2022-11-18T22:00:03.537Z,6.55
2022-11-18T22:02:48.916Z,4.30
2022-11-18T22:05:34.306Z,4.28
2022-11-18T22:08:19.935Z,5.97
2022-11-18T22:11:08.258Z,4.95
2022-11-18T22:13:54.320Z,6.10
2022-11-18T22:16:40.012Z,6.97
2022-11-18T22:19:25.629Z,6.45
2022-11-18T22:22:10.885Z,9.48
2022-11-18T22:24:56.385Z,6.72
2022-11-18T22:27:41.686Z,3.78
2022-11-18T22:30:27.422Z,7.18
2022-11-18T22:33:12.598Z,5.40
2022-11-18T22:36:02.923Z,7.18
2022-11-18T22:38:48.563Z,5.45
2022-11-18T22:41:52.627Z,5.07
2022-11-18T22:44:38.235Z,6.10
2022-11-18T22:47:23.638Z,5.43
2022-11-18T22:50:10.621Z,5.68
2022-11-18T22:52:56.022Z,7.32
2022-11-18T22:55:41.531Z,9.05
2022-11-18T22:58:27.287Z,5.80
2022-11-18T23:01:20.792Z,5.93
2022-11-18T23:04:06.836Z,3.92
2022-11-18T23:06:52.596Z,7.20
2022-11-18T23:09:38.257Z,3.70
2022-11-18T23:12:47.459Z,3.15
2022-11-18T23:15:33.758Z,5.50
2022-11-18T23:18:19.070Z,4.95
2022-11-18T23:21:04.931Z,4.82
2022-11-18T23:23:50.517Z,2.85
2022-11-18T23:26:36.214Z,3.78
2022-11-18T23:29:21.806Z,3.33
2022-11-18T23:32:07.991Z,5.82
2022-11-18T23:34:53.562Z,4.47
2022-11-18T23:37:39.270Z,5.93
2022-11-18T23:40:24.873Z,7.10
2022-11-18T23:43:10.115Z,7.85
2022-11-18T23:45:57.143Z,4.63
2022-11-18T23:48:43.657Z,3.67
2022-11-18T23:51:28.988Z,3.88
2022-11-18T23:54:14.430Z,4.07
2022-11-18T23:57:00.114Z,5.53
2022-11-18T23:59:45.377Z,3.22
